Time;durP1;ratioP1;P1;durP2;ratioP2;P2;SDS_P1;SDS_P2;PMS_P1;PMS_P2;Temp;Humidity;BMP_temperature;BMP_pressure;BME280_temperature;BME280_humidity;BME280_pressure;Samples;Min_cycle;Max_cycle;Signal;HPM_P1;HPM_P2
2023/01/02 00:00:18;;;;;;;6.60;4.08;;;;;;;7.37;100.00;100238.67;1733754;81;20423;-73
2023/01/02 00:02:45;;;;;;;7.47;4.00;;;;;;;7.32;100.00;100236.70;1752257;80;21035;-72
2023/01/02 00:05:12;;;;;;;6.15;3.87;;;;;;;7.33;100.00;100237.53;1725921;80;22197;-71
2023/01/02 00:10:58;;;;;;;6.83;4.58;;;;;;;7.26;100.00;100232.77;1745265;79;21117;-72
2023/01/02 00:13:25;;;;;;;7.10;4.08;;;;;;;7.23;100.00;100220.52;1727439;81;21885;-72
2023/01/02 00:15:51;;;;;;;;;;;;;;;7.25;100.00;100218.94;1727216;82;21034;-72
2023/01/02 00:18:18;;;;;;;8.40;4.40;;;;;;;7.25;100.00;100226.53;1724480;82;20252;-71
2023/01/02 00:20:44;;;;;;;7.72;4.40;;;;;;;7.11;100.00;100225.14;1741204;81;21647;-71
2023/01/02 00:23:12;;;;;;;6.22;3.90;;;;;;;7.07;100.00;100224.48;1725764;81;21114;-72
2023/01/02 00:25:38;;;;;;;;;;;;;;;7.10;100.00;100227.55;1727286;83;21051;-72
2023/01/02 00:28:05;;;;;;;6.40;4.20;;;;;;;7.16;100.00;100235.23;1723753;81;20167;-72
2023/01/02 00:30:31;;;;;;;6.37;4.15;;;;;;;7.14;100.00;100234.14;1740538;81;21639;-72
2023/01/02 00:32:57;;;;;;;6.28;4.10;;;;;;;7.12;100.00;100237.59;1754982;80;20962;-72
2023/01/02 00:35:24;;;;;;;5.97;3.87;;;;;;;7.09;100.00;100248.90;1749113;81;21030;-72
2023/01/02 00:37:52;;;;;;;8.33;4.17;;;;;;;7.10;100.00;100242.96;1739675;82;22126;-72
2023/01/02 00:40:18;;;;;;;7.15;3.92;;;;;;;7.16;100.00;100246.06;1739524;81;21045;-72
2023/01/02 00:42:47;;;;;;;5.08;3.70;;;;;;;7.21;100.00;100240.77;1735222;81;21006;-72
2023/01/02 00:45:13;;;;;;;6.03;4.17;;;;;;;7.22;100.00;100241.08;1738086;81;21078;-72
2023/01/02 00:47:40;;;;;;;;;;;;;;;7.20;100.00;100246.72;1745476;81;20982;-71
2023/01/02 00:50:06;;;;;;;6.05;4.35;;;;;;;7.20;100.00;100239.12;1739847;81;20147;-72
2023/01/02 00:52:45;;;;;;;5.75;4.03;;;;;;;7.18;100.00;100243.44;1740681;78;21165;-72
2023/01/02 00:55:12;;;;;;;6.90;3.98;;;;;;;7.22;100.00;100247.84;1729031;81;21067;-72
2023/01/02 00:57:39;;;;;;;7.00;4.37;;;;;;;7.23;100.00;100250.30;1740552;81;21055;-71
2023/01/02 01:00:06;;;;;;;;;;;;;;;7.22;100.00;100245.97;1737303;81;21876;-72
2023/01/02 01:02:33;;;;;;;6.65;4.20;;;;;;;7.18;100.00;100236.67;1747823;81;20167;-71
2023/01/02 01:04:59;;;;;;;6.67;4.28;;;;;;;7.21;100.00;100248.38;1735358;81;21512;-71
2023/01/02 01:07:26;;;;;;;6.28;4.35;;;;;;;7.22;100.00;100251.38;1741054;81;21124;-72
2023/01/02 01:09:52;;;;;;;;;;;;;;;7.20;100.00;100254.84;1692977;82;21089;-72
2023/01/02 01:12:18;;;;;;;6.90;4.75;;;;;;;7.15;100.00;100249.86;1735357;81;20956;-72
2023/01/02 01:14:45;;;;;;;;;;;;;;;7.10;100.00;100258.68;1742858;81;21054;-72
2023/01/02 01:17:12;;;;;;;6.40;4.13;;;;;;;7.13;100.00;100253.31;1707351;83;20134;-72
2023/01/02 01:19:38;;;;;;;7.58;4.72;;;;;;;7.11;100.00;100247.33;1727302;82;21219;-72
2023/01/02 01:22:05;;;;;;;7.10;4.10;;;;;;;7.13;100.00;100255.49;1714805;82;21027;-71
2023/01/02 01:24:33;;;;;;;8.83;4.80;;;;;;;7.13;100.00;100256.84;1713131;83;21104;-71
2023/01/02 01:26:59;;;;;;;6.70;4.28;;;;;;;7.10;100.00;100263.27;1721174;82;20987;-72
2023/01/02 01:29:25;;;;;;;7.25;4.25;;;;;;;7.10;100.00;100254.62;1725868;82;21093;-72
2023/01/02 01:31:52;;;;;;;;;;;;;;;7.16;100.00;100251.48;1727174;82;21029;-72
2023/01/02 01:34:18;;;;;;;6.72;3.60;;;;;;;7.18;100.00;100250.73;1719445;82;20851;-71
2023/01/02 01:36:45;;;;;;;5.83;4.33;;;;;;;7.15;100.00;100249.33;1728262;82;21056;-70
2023/01/02 01:39:11;;;;;;;5.97;4.17;;;;;;;7.14;100.00;100253.09;1730459;82;21041;-73
2023/01/02 01:41:38;;;;;;;7.37;4.80;;;;;;;7.16;100.00;100250.13;1725127;82;21605;-72
2023/01/02 01:44:43;;;;;;;5.78;3.87;;;;;;;7.23;100.00;100258.95;1725888;82;21065;-72
2023/01/02 01:47:49;;;;;;;7.92;4.40;;;;;;;7.31;100.00;100259.95;1723476;82;22051;-71
2023/01/02 01:50:31;;;;;;;6.50;4.47;;;;;;;7.37;100.00;100264.41;1726506;82;21028;-72
2023/01/02 01:53:06;;;;;;;7.90;4.62;;;;;;;7.34;100.00;100258.11;1742026;80;21069;-72
2023/01/02 01:55:49;;;;;;;6.20;4.20;;;;;;;7.38;100.00;100255.22;1707733;83;21048;-70
2023/01/02 01:58:23;;;;;;;5.78;4.00;;;;;;;7.43;100.00;100262.12;1713070;82;21099;-71
2023/01/02 02:00:49;;;;;;;7.83;4.67;;;;;;;7.47;100.00;100260.03;1718758;82;20952;-72
2023/01/02 02:03:20;;;;;;;8.28;4.45;;;;;;;7.45;100.00;100260.81;1696936;83;21515;-72
2023/01/02 02:05:46;;;;;;;7.22;4.62;;;;;;;7.45;100.00;100262.69;1715519;83;20969;-73
2023/01/02 02:08:20;;;;;;;6.17;4.30;;;;;;;7.48;100.00;100267.63;1717820;83;21086;-73
2023/01/02 02:10:47;;;;;;;6.20;4.35;;;;;;;7.51;100.00;100265.27;1718290;83;21015;-73
2023/01/02 02:13:15;;;;;;;7.65;4.47;;;;;;;7.55;100.00;100271.55;1718578;83;21098;-72
2023/01/02 02:16:10;;;;;;;8.95;4.62;;;;;;;7.53;100.00;100269.62;1714314;83;20999;-73
2023/01/02 02:19:09;;;;;;;7.25;4.17;;;;;;;7.54;100.00;100274.82;1730243;81;21084;-72
2023/01/02 02:21:57;;;;;;;7.22;4.20;;;;;;;7.59;100.00;100276.80;1624581;88;20948;-73
2023/01/02 02:24:49;;;;;;;7.40;4.45;;;;;;;7.62;100.00;100274.95;1765513;81;21576;-72
2023/01/02 02:27:47;;;;;;;6.53;4.60;;;;;;;7.59;100.00;100280.33;1771088;80;20963;-71
2023/01/02 02:30:22;;;;;;;6.70;4.28;;;;;;;7.53;100.00;100282.65;1771833;80;20987;-72
2023/01/02 02:33:27;;;;;;;7.17;4.40;;;;;;;7.56;100.00;100275.92;1730940;82;21003;-72
2023/01/02 02:36:23;;;;;;;7.58;4.72;;;;;;;7.59;100.00;100290.34;1715149;82;21515;-72
2023/01/02 02:39:07;;;;;;;7.95;4.90;;;;;;;7.55;100.00;100287.81;1715690;83;21082;-71
2023/01/02 02:41:46;;;;;;;8.03;4.37;;;;;;;7.45;100.00;100294.67;1685114;83;20992;-72
2023/01/02 02:44:48;;;;;;;8.18;4.62;;;;;;;7.43;100.00;100298.16;1716345;82;21110;-71
2023/01/02 02:47:23;;;;;;;6.40;4.40;;;;;;;7.47;100.00;100310.70;1711536;82;21634;-71
2023/01/02 02:50:00;;;;;;;6.47;4.58;;;;;;;7.44;100.00;100301.14;1714773;83;21098;-71
2023/01/02 02:52:41;;;;;;;6.75;4.58;;;;;;;7.43;100.00;100312.23;1715244;82;21583;-70
2023/01/02 02:55:18;;;;;;;7.22;4.72;;;;;;;7.36;100.00;100312.89;1714341;82;21478;-70
2023/01/02 02:57:45;;;;;;;6.60;4.50;;;;;;;7.36;100.00;100318.30;1713944;83;21090;-73
2023/01/02 03:00:13;;;;;;;;;;;;;;;7.38;100.00;100310.75;1719352;82;20980;-73
2023/01/02 03:02:40;;;;;;;8.95;5.10;;;;;;;7.33;100.00;100321.48;1715978;82;20129;-74
2023/01/02 03:05:10;;;;;;;6.03;4.25;;;;;;;7.20;100.00;100321.18;1738154;81;21045;-74
2023/01/02 03:07:54;;;;;;;5.87;4.17;;;;;;;7.19;100.00;100314.11;1704459;83;21123;-73
2023/01/02 03:10:51;;;;;;;7.70;4.78;;;;;;;7.19;100.00;100318.17;1698599;83;21094;-73
2023/01/02 03:13:38;;;;;;;7.20;4.92;;;;;;;7.18;100.00;100320.61;1675490;82;21146;-73
2023/01/02 03:16:33;;;;;;;7.62;5.00;;;;;;;7.10;100.00;100328.23;1714342;82;21067;-73
2023/01/02 03:19:20;;;;;;;8.88;4.70;;;;;;;7.06;100.00;100323.00;1713187;82;21057;-72
2023/01/02 03:22:16;;;;;;;8.33;4.87;;;;;;;7.09;100.00;100325.23;1711093;83;21020;-73
2023/01/02 03:24:43;;;;;;;9.30;5.47;;;;;;;7.04;100.00;100312.42;1720937;81;21607;-73
2023/01/02 03:27:13;;;;;;;7.17;4.60;;;;;;;7.00;100.00;100322.89;1727386;82;20991;-73
2023/01/02 03:29:46;;;;;;;7.75;5.12;;;;;;;7.03;100.00;100331.59;1687047;85;21029;-73
2023/01/02 03:32:18;;;;;;;7.20;4.60;;;;;;;7.05;100.00;100324.08;1713260;83;21028;-73
2023/01/02 03:34:45;;;;;;;7.95;4.55;;;;;;;7.01;100.00;100324.52;1725834;82;21056;-73
2023/01/02 03:37:15;;;;;;;7.75;4.50;;;;;;;6.97;100.00;100330.66;1730735;81;21100;-73
2023/01/02 03:39:47;;;;;;;6.85;4.55;;;;;;;6.94;100.00;100331.13;1726313;82;21580;-73
2023/01/02 03:42:22;;;;;;;6.62;5.25;;;;;;;6.92;100.00;100327.81;1725718;80;21615;-73
2023/01/02 03:44:56;;;;;;;7.08;5.08;;;;;;;6.88;100.00;100332.04;1717143;82;21524;-71
2023/01/02 03:47:36;;;;;;;6.05;4.55;;;;;;;6.83;100.00;100334.11;1718025;82;21637;-72
2023/01/02 03:50:17;;;;;;;7.67;4.78;;;;;;;6.87;100.00;100346.66;1724896;82;21034;-70
2023/01/02 03:52:44;;;;;;;7.75;4.55;;;;;;;6.87;100.00;100332.56;1725854;81;21030;-72
2023/01/02 03:55:10;;;;;;;;;;;;;;;6.85;100.00;100337.40;1739314;81;21072;-70
2023/01/02 03:57:42;;;;;;;6.70;4.87;;;;;;;6.84;100.00;100340.32;1718709;83;20156;-70
2023/01/02 04:00:11;;;;;;;8.50;5.50;;;;;;;6.72;100.00;100340.32;1710733;83;21813;-70
2023/01/02 04:03:01;;;;;;;9.28;5.15;;;;;;;6.72;100.00;100336.78;1730777;81;21041;-70
2023/01/02 04:05:50;;;;;;;8.38;4.85;;;;;;;6.76;100.00;100343.39;1733511;81;20955;-70
2023/01/02 04:08:29;;;;;;;8.85;5.12;;;;;;;6.80;100.00;100350.79;1731218;81;21046;-71
2023/01/02 04:10:57;;;;;;;9.60;5.70;;;;;;;6.83;100.00;100352.23;1721941;81;21069;-72
2023/01/02 04:13:38;;;;;;;8.20;5.60;;;;;;;6.83;100.00;100353.58;1749995;80;21132;-74
2023/01/02 04:16:12;;;;;;;8.55;5.45;;;;;;;6.81;100.00;100352.97;1735311;82;21050;-73
2023/01/02 04:18:42;;;;;;;8.55;5.40;;;;;;;6.81;100.00;100355.67;1727882;81;21086;-73
2023/01/02 04:21:12;;;;;;;10.05;5.87;;;;;;;6.85;100.00;100361.75;1706639;83;21554;-73
2023/01/02 04:23:43;;;;;;;8.75;5.95;;;;;;;6.89;100.00;100368.36;1751468;80;21681;-73
2023/01/02 04:26:33;;;;;;;12.35;6.62;;;;;;;6.91;100.00;100373.52;1749325;81;21045;-73
2023/01/02 04:28:59;;;;;;;11.38;6.53;;;;;;;6.91;100.00;100377.58;1723458;83;21497;-73
2023/01/02 04:31:57;;;;;;;10.05;6.78;;;;;;;6.87;100.00;100390.75;1737687;82;21589;-74
2023/01/02 04:34:23;;;;;;;14.13;6.28;;;;;;;6.90;100.00;100394.90;1720720;82;21137;-73
2023/01/02 04:36:50;;;;;;;9.68;6.62;;;;;;;6.95;100.00;100393.13;1737985;82;21628;-73
2023/01/02 04:39:18;;;;;;;8.75;6.12;;;;;;;6.96;100.00;100400.73;1737073;81;21105;-72
2023/01/02 04:41:45;;;;;;;12.25;6.72;;;;;;;6.94;100.00;100402.30;1748874;81;21013;-72
2023/01/02 04:44:12;;;;;;;13.03;7.08;;;;;;;6.90;100.00;100403.02;1717659;83;21031;-73
2023/01/02 04:46:38;;;;;;;10.63;6.40;;;;;;;6.90;100.00;100397.61;1740018;82;21438;-73
2023/01/02 04:49:05;;;;;;;9.38;6.45;;;;;;;6.94;100.00;100403.66;1744452;80;21041;-72
2023/01/02 04:51:31;;;;;;;11.53;6.92;;;;;;;6.95;100.00;100404.48;1725999;83;21395;-72
2023/01/02 04:53:57;;;;;;;7.35;5.40;;;;;;;6.92;100.00;100404.95;1750974;82;21056;-73
2023/01/02 04:56:24;;;;;;;9.53;6.28;;;;;;;6.87;100.00;100412.41;1744690;81;20994;-73
2023/01/02 04:58:51;;;;;;;;;;;;;;;6.83;100.00;100415.83;1743631;81;21070;-72
2023/01/02 05:01:18;;;;;;;8.63;5.60;;;;;;;6.86;100.00;100423.48;1734437;81;20469;-72
2023/01/02 05:03:47;;;;;;;8.43;5.53;;;;;;;6.82;100.00;100420.41;1741738;81;21126;-73
2023/01/02 05:06:14;;;;;;;9.03;6.17;;;;;;;6.84;100.00;100427.75;1741918;82;21016;-74
2023/01/02 05:08:41;;;;;;;10.05;6.03;;;;;;;6.78;100.00;100434.63;1741384;81;21681;-73
2023/01/02 05:11:16;;;;;;;10.00;6.03;;;;;;;6.75;100.00;100438.62;1734612;81;20971;-73
2023/01/02 05:13:43;;;;;;;9.88;5.95;;;;;;;6.78;100.00;100443.56;1732758;81;21062;-73
2023/01/02 05:16:09;;;;;;;10.10;5.80;;;;;;;6.76;100.00;100442.98;1741751;81;20958;-73
2023/01/02 05:18:36;;;;;;;9.23;5.67;;;;;;;6.70;100.00;100454.70;1742188;81;21029;-73
2023/01/02 05:21:05;;;;;;;8.43;5.92;;;;;;;6.63;100.00;100443.67;1728803;81;20988;-73
2023/01/02 05:23:50;;;;;;;7.85;5.22;;;;;;;6.68;100.00;100446.52;1739541;81;21027;-73
2023/01/02 05:26:16;;;;;;;8.55;5.33;;;;;;;6.70;100.00;100453.35;1753516;82;20974;-73
2023/01/02 05:28:43;;;;;;;7.85;5.80;;;;;;;6.65;100.00;100454.58;1729137;82;21567;-72
2023/01/02 05:31:10;;;;;;;9.70;5.67;;;;;;;6.59;100.00;100466.30;1725801;83;20961;-73
2023/01/02 05:33:36;;;;;;;7.30;5.05;;;;;;;6.56;100.00;100465.41;1726590;83;21070;-73
2023/01/02 05:36:05;;;;;;;10.45;5.65;;;;;;;6.58;100.00;100463.31;1726272;83;20992;-73
2023/01/02 05:38:34;;;;;;;8.73;5.85;;;;;;;6.60;100.00;100476.59;1725448;82;21125;-73
2023/01/02 05:41:02;;;;;;;9.28;5.92;;;;;;;6.56;100.00;100472.69;1724735;83;21016;-73
2023/01/02 05:43:32;;;;;;;10.13;5.90;;;;;;;6.46;100.00;100467.83;1724044;82;22167;-73
2023/01/02 05:46:07;;;;;;;7.42;4.97;;;;;;;6.41;100.00;100460.94;1724745;83;21054;-73
2023/01/02 05:48:34;;;;;;;8.93;5.17;;;;;;;6.40;100.00;100474.98;1724147;82;21060;-73
2023/01/02 05:51:02;;;;;;;7.85;5.10;;;;;;;6.39;100.00;100466.56;1738612;82;20994;-73
2023/01/02 05:53:29;;;;;;;11.35;6.72;;;;;;;6.37;100.00;100463.80;1722495;81;21116;-73
2023/01/02 05:56:08;;;;;;;10.28;6.33;;;;;;;6.34;100.00;100463.70;1708114;83;21031;-73
2023/01/02 05:58:36;;;;;;;10.35;6.70;;;;;;;6.35;100.00;100469.94;1736163;81;21157;-73
2023/01/02 06:01:10;;;;;;;10.50;6.37;;;;;;;6.36;100.00;100464.31;1707119;84;21062;-72
2023/01/02 06:03:37;;;;;;;10.63;7.00;;;;;;;6.37;100.00;100463.80;1737087;81;21106;-73
2023/01/02 06:06:05;;;;;;;10.35;6.65;;;;;;;6.34;100.00;100457.48;1723488;83;20983;-73
2023/01/02 06:08:32;;;;;;;14.07;7.15;;;;;;;6.34;100.00;100458.28;1722435;82;21110;-72
2023/01/02 06:10:59;;;;;;;11.57;6.45;;;;;;;6.38;100.00;100464.90;1726838;82;21520;-72
2023/01/02 06:13:28;;;;;;;11.28;6.95;;;;;;;6.40;100.00;100457.92;1718612;82;21113;-73
2023/01/02 06:15:58;;;;;;;12.20;7.00;;;;;;;6.40;100.00;100456.57;1718685;83;21624;-73
2023/01/02 06:18:25;;;;;;;10.30;7.03;;;;;;;6.36;100.00;100459.42;1716620;82;21151;-73
2023/01/02 06:20:51;;;;;;;14.70;6.62;;;;;;;6.34;100.00;100465.59;1684886;85;21074;-73
2023/01/02 06:23:18;;;;;;;8.58;6.25;;;;;;;6.34;100.00;100466.40;1719271;82;21074;-73
2023/01/02 06:25:44;;;;;;;;;;;;;;;6.35;100.00;100469.41;1726942;83;21063;-73
2023/01/02 06:28:12;;;;;;;12.23;7.40;;;;;;;6.36;100.00;100472.42;1723116;82;20146;-73
2023/01/02 06:30:39;;;;;;;;;;;;;;;6.31;100.00;100480.90;1737494;82;21343;-72
2023/01/02 06:33:05;;;;;;;10.48;6.22;;;;;;;6.33;100.00;100478.81;1690779;85;20137;-73
2023/01/02 06:35:32;;;;;;;10.68;6.50;;;;;;;6.34;100.00;100481.27;1721504;82;21066;-73
2023/01/02 06:37:58;;;;;;;11.68;6.97;;;;;;;6.41;100.00;100473.11;1722950;82;21147;-73
2023/01/02 06:40:25;;;;;;;12.28;8.00;;;;;;;6.45;100.00;100480.52;1722145;83;21048;-73
2023/01/02 06:42:52;;;;;;;12.18;8.28;;;;;;;6.45;100.00;100481.88;1720099;83;21258;-72
2023/01/02 06:45:18;;;;;;;;;;;;;;;6.48;100.00;100480.06;1741735;82;21644;-73
2023/01/02 06:47:45;;;;;;;12.30;7.40;;;;;;;6.53;100.00;100479.39;1691988;83;20129;-73
2023/01/02 06:50:11;;;;;;;11.90;8.13;;;;;;;6.57;100.00;100477.05;1717054;83;21035;-73
2023/01/02 06:52:38;;;;;;;;;;;;;;;6.63;100.00;100482.38;1703853;82;21908;-73
2023/01/02 06:55:05;;;;;;;12.70;9.40;;;;;;;6.65;100.00;100484.34;1717911;82;20581;-73
2023/01/02 06:57:32;;;;;;;14.95;9.40;;;;;;;6.56;100.00;100489.75;1715148;83;21119;-73
2023/01/02 06:59:58;;;;;;;15.20;9.83;;;;;;;6.55;100.00;100495.41;1734016;82;21018;-73
2023/01/02 07:02:26;;;;;;;12.63;9.08;;;;;;;6.59;100.00;100496.61;1688479;82;21116;-73
2023/01/02 07:04:52;;;;;;;13.30;8.80;;;;;;;6.66;100.00;100502.77;1723457;82;21619;-73
2023/01/02 07:07:19;;;;;;;;;;;;;;;6.73;100.00;100510.27;1739479;81;21121;-73
2023/01/02 07:09:47;;;;;;;15.43;12.07;;;;;;;6.80;100.00;100503.69;1702488;83;20208;-74
2023/01/02 07:12:14;;;;;;;17.50;12.68;;;;;;;6.76;100.00;100506.58;1690604;83;21602;-73
2023/01/02 07:14:41;;;;;;;16.93;11.60;;;;;;;6.78;100.00;100516.63;1688414;84;21044;-73
2023/01/02 07:17:08;;;;;;;16.45;12.10;;;;;;;6.84;100.00;100515.71;1688108;83;21521;-73
2023/01/02 07:19:35;;;;;;;18.02;12.78;;;;;;;6.98;100.00;100526.66;1714310;83;21438;-73
2023/01/02 07:22:03;;;;;;;33.13;26.82;;;;;;;7.10;100.00;100529.42;1717031;81;20993;-73
2023/01/02 07:24:29;;;;;;;35.08;27.20;;;;;;;7.19;100.00;100535.34;1714850;82;21578;-73
2023/01/02 07:26:57;;;;;;;36.65;27.22;;;;;;;7.24;100.00;100547.66;1717206;83;21032;-73
2023/01/02 07:29:23;;;;;;;28.77;20.72;;;;;;;7.28;100.00;100538.84;1718642;82;21046;-73
2023/01/02 07:31:49;;;;;;;25.20;19.70;;;;;;;7.39;100.00;100534.52;1715211;83;20981;-73
2023/01/02 07:34:18;;;;;;;18.62;14.70;;;;;;;7.48;100.00;100538.01;1716904;82;21078;-74
2023/01/02 07:36:44;;;;;;;26.37;20.65;;;;;;;7.53;100.00;100540.03;1716210;82;21277;-73
2023/01/02 07:39:11;;;;;;;18.92;12.20;;;;;;;7.54;100.00;100539.50;1712188;83;21066;-73
2023/01/02 07:41:37;;;;;;;11.97;9.23;;;;;;;7.64;100.00;100546.53;1713721;83;21021;-73
2023/01/02 07:44:06;;;;;;;21.23;16.35;;;;;;;7.76;100.00;100545.48;1713161;82;21149;-73
2023/01/02 07:46:32;;;;;;;;;;;;;;;7.87;100.00;100548.73;1728590;82;21055;-73
2023/01/02 07:51:31;;;;;;;18.00;13.10;;;;;;;7.99;100.00;100536.55;1797465;78;22932;-73
2023/01/02 07:53:57;;;;;;;15.08;10.08;;;;;;;8.05;100.00;100550.52;1736144;81;21117;-73
2023/01/02 07:56:25;;;;;;;11.12;7.92;;;;;;;8.21;100.00;100543.05;1729649;81;21036;-74
2023/01/02 07:58:52;;;;;;;11.20;7.53;;;;;;;8.36;100.00;100547.46;1729493;83;21504;-74
2023/01/02 08:01:18;;;;;;;10.48;7.83;;;;;;;8.48;100.00;100547.45;1727453;81;21018;-74
2023/01/02 08:03:44;;;;;;;14.38;10.23;;;;;;;8.55;100.00;100548.16;1733750;80;21029;-74
2023/01/02 08:06:12;;;;;;;;;;;;;;;8.63;100.00;100546.44;1728917;81;20998;-74
2023/01/02 08:10:55;;;;;;;11.03;8.88;;;;;;;8.80;100.00;100550.57;1786478;79;23209;-76
2023/01/02 08:13:22;;;;;;;15.72;9.80;;;;;;;8.85;100.00;100557.48;1762947;80;21120;-76
2023/01/02 08:15:49;;;;;;;;;;;;;;;8.87;100.00;100547.19;1779419;80;21019;-76
2023/01/02 08:18:15;;;;;;;12.30;8.18;;;;;;;8.95;100.00;100554.96;1756219;79;20131;-76
2023/01/02 08:20:42;;;;;;;10.53;6.75;;;;;;;8.93;100.00;100550.29;1764737;80;21592;-76
2023/01/02 08:23:08;;;;;;;10.50;7.05;;;;;;;8.95;100.00;100552.25;1768661;79;21002;-76
2023/01/02 08:25:35;;;;;;;9.93;7.00;;;;;;;8.93;100.00;100551.64;1775158;80;22090;-75
2023/01/02 08:28:02;;;;;;;10.45;6.90;;;;;;;8.90;100.00;100547.53;1767294;80;20988;-75
2023/01/02 08:30:29;;;;;;;10.43;6.50;;;;;;;8.96;100.00;100555.27;1776471;80;21580;-75
2023/01/02 08:32:56;;;;;;;9.63;6.55;;;;;;;9.07;100.00;100553.57;1791786;80;21062;-75
2023/01/02 08:35:22;;;;;;;8.73;6.30;;;;;;;9.09;100.00;100552.25;1775495;80;21112;-74
2023/01/02 08:37:49;;;;;;;9.93;6.78;;;;;;;9.08;100.00;100551.12;1781050;79;21104;-73
2023/01/02 08:40:16;;;;;;;10.35;6.85;;;;;;;9.10;100.00;100558.52;1784810;80;21495;-74
2023/01/02 08:42:42;;;;;;;9.83;6.53;;;;;;;9.16;100.00;100551.58;1742747;81;21061;-77
2023/01/02 08:45:10;;;;;;;10.55;6.92;;;;;;;9.29;100.00;100562.14;1757904;80;21133;-75
2023/01/02 08:47:38;;;;;;;9.20;6.60;;;;;;;9.40;100.00;100555.00;1749725;80;21062;-75
2023/01/02 08:50:05;;;;;;;9.43;6.37;;;;;;;9.43;100.00;100548.54;1751472;80;21102;-76
2023/01/02 08:52:32;;;;;;;9.33;6.50;;;;;;;9.44;100.00;100556.99;1772050;79;21077;-74
2023/01/02 08:55:04;;;;;;;10.72;6.62;;;;;;;9.48;100.00;100548.64;1769403;80;21066;-75
2023/01/02 08:57:29;;;;;;;9.25;6.67;;;;;;;9.56;100.00;100540.62;1767932;80;21092;-75
2023/01/02 08:59:57;;;;;;;12.58;6.78;;;;;;;9.60;100.00;100546.40;1771697;80;22213;-75
2023/01/02 09:02:24;;;;;;;9.40;6.47;;;;;;;9.61;100.00;100542.59;1757092;80;21579;-75
2023/01/02 09:04:51;;;;;;;8.68;6.65;;;;;;;9.61;100.00;100549.38;1764500;80;21049;-75
2023/01/02 09:07:17;;;;;;;9.98;6.95;;;;;;;9.67;100.00;100543.78;1754482;80;21099;-75
2023/01/02 09:09:44;;;;;;;11.03;7.95;;;;;;;9.75;100.00;100539.30;1754716;80;21620;-75
2023/01/02 09:12:10;;;;;;;;;;;;;;;9.82;100.00;100545.94;1746903;78;21038;-75
2023/01/02 09:14:38;;;;;;;9.18;6.95;;;;;;;9.89;100.00;100541.98;1753564;80;20154;-74
2023/01/02 09:17:04;;;;;;;10.03;7.35;;;;;;;9.99;100.00;100546.22;1757811;80;21039;-75
2023/01/02 09:19:31;;;;;;;9.88;7.00;;;;;;;10.15;100.00;100541.87;1769894;80;21022;-75
2023/01/02 09:22:00;;;;;;;9.88;7.80;;;;;;;10.20;100.00;100550.09;1754816;78;21106;-76
2023/01/02 09:24:27;;;;;;;11.70;7.20;;;;;;;10.25;100.00;100550.72;1757930;80;21782;-76
2023/01/02 09:26:54;;;;;;;10.53;7.37;;;;;;;10.34;100.00;100534.27;1757111;80;21042;-75
2023/01/02 09:29:21;;;;;;;10.50;7.28;;;;;;;10.47;100.00;100533.90;1764165;80;21113;-76
2023/01/02 09:31:48;;;;;;;9.55;7.62;;;;;;;10.49;100.00;100534.45;1759433;80;21006;-75
2023/01/02 09:34:14;;;;;;;10.08;7.00;;;;;;;10.48;100.00;100532.83;1777735;80;21049;-76
2023/01/02 09:36:40;;;;;;;;;;;;;;;10.51;100.00;100522.80;1765557;78;21522;-76
2023/01/02 09:39:07;;;;;;;9.03;6.28;;;;;;;10.59;100.00;100521.53;1764572;80;20104;-75
2023/01/02 09:41:42;;;;;;;11.35;7.00;;;;;;;10.51;100.00;100516.52;1778982;78;21027;-76
2023/01/02 09:44:41;;;;;;;10.32;6.70;;;;;;;10.42;100.00;100522.92;1741754;80;21089;-74
2023/01/02 09:47:21;;;;;;;9.85;7.10;;;;;;;10.39;100.00;100517.45;1764300;80;20963;-76
2023/01/02 09:49:54;;;;;;;8.65;6.50;;;;;;;10.39;100.00;100513.38;1764656;78;21379;-75
2023/01/02 09:52:35;;;;;;;10.53;6.85;;;;;;;10.38;100.00;100509.00;1757423;78;20984;-75
2023/01/02 09:55:17;;;;;;;12.85;6.80;;;;;;;10.29;100.00;100498.27;1767705;80;21097;-73
2023/01/02 09:58:04;;;;;;;9.15;6.90;;;;;;;10.35;100.00;100508.68;1753539;80;21002;-75
2023/01/02 10:00:34;;;;;;;9.68;7.10;;;;;;;10.44;100.00;100505.30;1764097;78;21105;-76
2023/01/02 10:03:23;;;;;;;10.13;7.05;;;;;;;10.43;100.00;100497.36;1768380;80;21121;-76
2023/01/02 10:06:14;;;;;;;10.88;6.80;;;;;;;10.42;100.00;100505.23;1670912;83;21578;-75
2023/01/02 10:09:08;;;;;;;8.55;6.70;;;;;;;10.43;100.00;100500.09;1700327;83;21149;-74
2023/01/02 10:11:49;;;;;;;11.33;7.08;;;;;;;10.49;100.00;100499.89;1714213;83;21070;-75
2023/01/02 10:14:54;;;;;;;9.48;6.92;;;;;;;10.49;100.00;100493.63;1725889;81;21042;-73
2023/01/02 10:17:20;;;;;;;12.07;8.28;;;;;;;10.53;100.00;100493.94;1699892;82;21043;-75
2023/01/02 10:19:56;;;;;;;;;;;;;;;10.68;100.00;100498.22;1712905;82;21984;-74
2023/01/02 10:22:41;;;;;;;10.68;7.00;;;;;;;10.78;100.00;100483.36;1715545;81;20168;-74
2023/01/02 10:25:22;;;;;;;9.45;6.70;;;;;;;10.72;100.00;100477.05;1743231;81;21612;-75
2023/01/02 10:28:02;;;;;;;11.68;7.42;;;;;;;10.78;100.00;100467.84;1719500;81;21069;-76
2023/01/02 10:30:37;;;;;;;9.75;7.03;;;;;;;10.95;100.00;100470.47;1701469;83;21176;-74
2023/01/02 10:33:19;;;;;;;10.68;7.10;;;;;;;11.07;100.00;100463.52;1732056;81;21004;-75
2023/01/02 10:35:50;;;;;;;12.43;7.33;;;;;;;11.08;100.00;100447.46;1740625;81;21011;-75
2023/01/02 10:38:17;;;;;;;10.15;7.60;;;;;;;11.08;100.00;100440.11;1737124;81;21077;-75
2023/01/02 10:40:46;;;;;;;10.50;6.83;;;;;;;11.13;100.00;100442.87;1704750;83;21076;-74
2023/01/02 10:43:13;;;;;;;11.05;7.20;;;;;;;11.21;100.00;100450.58;1704910;83;20972;-75
2023/01/02 10:45:39;;;;;;;10.55;7.15;;;;;;;11.23;100.00;100454.42;1706088;82;21019;-76
2023/01/02 10:48:10;;;;;;;25.10;16.07;;;;;;;11.21;100.00;100445.13;1680402;84;21015;-76
2023/01/02 10:50:50;;;;;;;18.37;12.25;;;;;;;11.25;100.00;100435.36;1738976;80;21061;-76
2023/01/02 10:53:22;;;;;;;11.00;7.92;;;;;;;11.38;100.00;100435.45;1715567;81;20990;-75
2023/01/02 10:55:48;;;;;;;11.40;7.55;;;;;;;11.49;100.00;100432.56;1704638;83;21022;-75
2023/01/02 10:58:27;;;;;;;11.15;8.30;;;;;;;11.62;100.00;100442.19;1709009;82;22009;-76
2023/01/02 11:01:06;;;;;;;11.08;8.88;;;;;;;11.70;100.00;100434.89;1711247;82;20999;-76
2023/01/02 11:03:34;;;;;;;10.25;7.65;;;;;;;11.84;100.00;100432.55;1708005;81;21055;-76
2023/01/02 11:06:01;;;;;;;10.00;7.00;;;;;;;12.00;100.00;100431.58;1715258;82;20951;-75
2023/01/02 11:08:37;;;;;;;11.48;7.85;;;;;;;12.17;100.00;100434.95;1736741;81;21004;-76
2023/01/02 11:11:17;;;;;;;10.85;7.67;;;;;;;12.30;100.00;100433.63;1698407;82;21053;-74
2023/01/02 11:13:46;;;;;;;9.20;7.22;;;;;;;12.38;100.00;100439.95;1739833;80;21468;-74
2023/01/02 11:16:14;;;;;;;11.05;7.75;;;;;;;12.31;100.00;100436.11;1710172;82;21038;-75
2023/01/02 11:18:51;;;;;;;10.45;6.97;;;;;;;12.38;100.00;100437.22;1667993;83;21138;-75
2023/01/02 11:21:32;;;;;;;9.93;7.12;;;;;;;12.48;100.00;100439.45;1684144;82;21130;-76
2023/01/02 11:24:03;;;;;;;12.07;7.72;;;;;;;12.58;100.00;100441.39;1736962;80;21133;-76
2023/01/02 11:26:32;;;;;;;9.63;7.00;;;;;;;12.69;100.00;100438.14;1704293;81;21007;-76
2023/01/02 11:29:09;;;;;;;11.80;7.67;;;;;;;12.80;100.00;100431.62;1721695;82;21149;-76
2023/01/02 11:31:46;;;;;;;10.28;7.40;;;;;;;12.85;100.00;100437.94;1717631;82;21446;-75
2023/01/02 11:34:23;;;;;;;7.45;6.22;;;;;;;12.88;100.00;100440.13;1712077;83;21013;-77
2023/01/02 11:37:14;;;;;;;10.93;6.60;;;;;;;12.94;100.00;100440.95;1729812;81;21066;-76
2023/01/02 11:39:42;;;;;;;8.75;6.58;;;;;;;13.04;100.00;100432.77;1748365;80;21090;-75
2023/01/02 11:45:16;;;;;;;10.00;7.72;;;;;;;13.09;100.00;100435.55;1715097;82;21088;-76
2023/01/02 11:47:49;;;;;;;13.83;10.15;;;;;;;13.05;100.00;100418.55;1730272;82;21090;-75
2023/01/02 11:50:27;;;;;;;18.05;11.53;;;;;;;13.03;100.00;100422.12;1746801;80;21726;-76
2023/01/02 11:53:12;;;;;;;11.75;7.45;;;;;;;13.11;100.00;100414.22;1749113;81;21057;-76
2023/01/02 11:56:00;;;;;;;11.43;7.65;;;;;;;13.22;100.00;100415.05;1697211;81;21128;-74